To NAV CANADA Home Page Login to a new session Search on AWWS site Feedback and Comments Disclaimer Vers la page française équivalente Tips FAQ What's new on the site To the Forecasts and Observations / NOTAM section To "File a Flight Plan" website Publications and other links Update of the User's profile FIC Telephone Numbers My Weather Data Folder Route Weather Data Regional Weather Data Local Weather Data To the Forecasts and Observations / NOTAM section
Request Generated 05/25/2017 at 01:15:21 UTC . Weather information available at that time is displayed.

METAR/TAF

CALGARY/SPRINGBANK/AB    (show WxCam)

SPECI CYBW 250108Z AUTO 34027G35KT 4SM -RA BR FEW012 BKN019 OVC024
05/05 A2948 RMK PRESRR SLP002 DENSITY ALT 4100FT=
SPECI CYBW 250104Z AUTO 33022G32KT 4SM +RA BR OVC019 04/04 A2948 RMK
PRESRR SLP003 DENSITY ALT 4100FT=
METAR CYBW 250100Z AUTO 32022G33KT 4SM RA BR OVC019 04/04 A2948 RMK
PRESRR SLP001 DENSITY ALT 4000FT=
SPECI CYBW 250022Z AUTO 32024G33KT 5SM RA BR BKN019 OVC025 04/04
A2944 RMK PRESRR SLP989 DENSITY ALT 4100FT=
SPECI CYBW 250012Z AUTO 32027G35KT 6SM RA BR BKN019 OVC025 04/04
A2943 RMK PRESRR SLP986 DENSITY ALT 4100FT=
SPECI CYBW 250006Z AUTO 32023G39KT 5SM -RA BR BKN017 OVC025 04/04
A2943 RMK PRESRR SLP983 DENSITY ALT 4100FT=
METAR CYBW 250000Z AUTO 32029G39KT 5SM RA BR SCT017 OVC027 04/04
A2942 RMK PRESRR PCPN 3.5MM PAST HR SLP981 DENSITY ALT 4100FT=
SPECI CYBW 242353Z AUTO 32027G36KT 5SM RA BR SCT017 OVC025 04/04
A2942 RMK SLP978 DENSITY ALT 4100FT=
SPECI CYBW 242350Z AUTO 32027G35KT 5SM RA BR BKN017 OVC025 04/04
A2941 RMK SLP975 DENSITY ALT 4100FT=
METAR CYBW 242300Z AUTO 32028G35KT 6SM RA BR OVC012 04/03 A2938 RMK
SLP967 DENSITY ALT 4100FT=

TAF AMD CYBW 250108Z 2501/2504 33025G35KT WS008/35085KT P6SM -SHRA
SCT015 BKN040 TEMPO 2501/2504 2SM SHRASN BR BKN015 OVC030
BECMG 2502/2504 32015G25KT
RMK FCST BASED ON AUTO OBS. NXT FCST WILL BE ISSUED AT 251145Z=
Your time UTC time
Weather data provided by Environment Canada and NAV CANADA